AirNav   Everest Fuels
 
 856 users online  

58FA St Joseph's Hospital Heliport
Riverview, Florida, USA

GOING TO RIVERVIEW?


FAA INFORMATION EFFECTIVE 07 NOVEMBER 2019

Location

FAA Identifier: 58FA
Lat/Long: 27-47-13.1000N 082-20-44.6000W
27-47.218333N 082-20.743333W
27.7869722,-82.3457222
(estimated)
Elevation: 53 ft. / 16 m (estimated)
From city: 5 miles SSW of RIVERVIEW, FL
Time zone: UTC -5 (UTC -4 during Daylight Saving Time)
Zip code: 33579

Heliport Operations

Heliport use: Private use. Permission required prior to landing
Activation date: 12/2015
Control tower: no
ARTCC: MIAMI CENTER
FSS: SAINT PETERSBURG FLIGHT SERVICE STATION
Attendance: CONTINUOUS
Wind indicator: yes
Segmented circle: no
Lights: SS-SR
Beacon: white-green (lighted land airport)
Operates sunset to sunrise.

Heliport Communications

WX AWOS-3 at TPF (9 nm NW): 118.925 (813-251-6824)
WX AWOS-3 at VDF (14 nm N): 121.125 (813-630-0924)
WX ASOS at SPG (15 nm W): 118.875 (727-821-4334)
WX ASOS at TPA (15 nm NW): PHONE 813-873-7228
WX AWOS-3 at PCM (16 nm NE): 120.025 (813-764-8259)
WX ASOS at PIE (19 nm W): PHONE 727-531-3456

Nearby radio navigation aids

VOR radial/distance  VOR name  Freq  Var
PIEr117/19.4ST PETERSBURG VORTAC116.4005W
LALr235/21.3LAKELAND VORTAC116.0001E
SRQr032/25.6SARASOTA VOR/DME117.0005W

Heliport Services

Runway Information

Helipad H1

Dimensions: 40 x 40 ft. / 12 x 12 m
Surface: concrete
Runway edge lights: low intensity
Traffic pattern: leftleft

Heliport Ownership and Management from official FAA records

Ownership: Privately-owned
Owner: ST JOSEPH'S HOSPITAL SOUTH BAYCARE
6901 SIMMONS LOOP
RIVERVIEW, FL 33607
Phone 813-554-8213
Manager: GILBERT LEON
3001 E DR MARTIN LUTHER KING BLVD
TAMPA, FL 33610
Phone 813-554-8213

Additional Remarks

FOR CD CTC TAMPA APCH AT 813-878-2528

Instrument Procedures

There are no published instrument procedures at 58FA.

Some nearby airports with instrument procedures:

KTPF - Peter O Knight Airport (9 nm NW)
KMCF - MacDill Air Force Base (10 nm W)
KVDF - Tampa Executive Airport (14 nm N)
KSPG - Albert Whitted Airport (15 nm W)
KTPA - Tampa International Airport (15 nm NW)
KPCM - Plant City Airport (16 nm NE)
KPIE - St Pete-Clearwater International Airport (19 nm W)
 
Loc | Ops | Rwys | IFR | FBO | Links
Com | Nav | Svcs | Stats | Notes
Aerial photo
No photo
 
Airport distance calculator
Flying to St Joseph's Hospital Heliport? Find the distance to fly.

From to 58FA

Sunrise and sunset
Times for 21-Nov-2019
 Local
(UTC-5)
 Zulu
(UTC)
Morning civil twilight06:3111:31
Sunrise06:5611:56
Sunset17:3422:34
Evening civil twilight17:5922:59

Current date and time
Zulu (UTC)  21-Nov-2019 13:18:29
Local (UTC-5)  21-Nov-2019 08:18:29
 
METAR
KTPF 
9nm NW 
211255Z AUTO 05006KT 10SM SCT110 13/12 A3023 RMK AO2
KMCF 
10nm NW 
211256Z AUTO 06005KT 10SM CLR 14/11 A3021 RMK AO2 SLP233 T01350112 FZRANO $
KVDF 
14nm N 
211255Z AUTO 00000KT 10SM CLR 10/10 A3023 RMK AO2
KTPA 
15nm NW 
211253Z 03004KT 10SM FEW250 13/09 A3023 RMK AO2 SLP235 T01330094
KSPG 
15nm W 
211253Z 05009KT 10SM CLR 17/12 A3020 RMK AO2 SLP228 T01670122
KPCM 
16nm NE 
211255Z AUTO 03003KT 10SM CLR 12/11 A3024 RMK AO2
KPIE 
20nm NW 
211253Z 07007KT 10SM CLR 16/11 A3022 RMK AO2 SLP233 T01560106
TAF
KMCF 
10nm NW 
210900Z 2109/2215 06009KT 9999 FEW030 QNH3010INS TX21/2120Z TN15/2111Z
KTPA 
15nm NW 
211131Z 2112/2218 05004KT P6SM SKC FM211500 08006KT P6SM FEW250 FM211800 13007KT P6SM SCT250 FM212100 03006KT P6SM FEW250 FM220100 VRB04KT P6SM SKC FM221500 10006KT P6SM FEW250
KPIE 
20nm NW 
211131Z 2112/2212 08008KT P6SM SKC FM212100 01006KT P6SM SKC FM220100 VRB05KT P6SM SKC
NOTAMs
Click for the latest NOTAMs
NOTAMs are issued by the DoD/FAA and will open in a separate window not controlled by AirNav.

 

 
 

Would you like to see your business listed on this page?

 If your business provides an interesting product or service to pilots, flight crews, aircraft, or users of the St Joseph's Hospital Heliport, you should consider listing it here.  To start the listing process, click on the button below
 
Add a business
 

Other Pages about St Joseph's Hospital Heliport

Update a link
 
Copyright © AirNav, LLC. All rights reserved. Privacy Policy  Contact